createdAt,value
2022-10-17T00:00:42.339Z,14.38
2022-10-17T00:01:42.369Z,14.42
2022-10-17T00:02:42.317Z,14.34
2022-10-17T00:03:42.310Z,14.42
2022-10-17T00:04:42.321Z,14.36
2022-10-17T00:05:42.294Z,14.48
2022-10-17T00:06:42.274Z,14.39
2022-10-17T00:07:42.268Z,14.48
2022-10-17T00:08:42.254Z,14.45
2022-10-17T00:09:42.246Z,14.35
2022-10-17T00:10:42.237Z,14.38
2022-10-17T00:11:42.228Z,14.48
2022-10-17T00:12:42.213Z,14.34
2022-10-17T00:13:42.205Z,14.31
2022-10-17T00:14:42.192Z,14.34
2022-10-17T00:15:42.185Z,14.34
2022-10-17T00:16:42.172Z,14.24
2022-10-17T00:17:42.166Z,14.16
2022-10-17T00:18:42.151Z,14.09
2022-10-17T00:19:42.143Z,14.23
2022-10-17T00:20:42.147Z,14.26
2022-10-17T00:21:42.122Z,14.36
2022-10-17T00:22:42.119Z,14.35
2022-10-17T00:23:42.102Z,14.34
2022-10-17T00:24:42.089Z,14.26
2022-10-17T00:25:42.081Z,14.42
2022-10-17T00:26:42.069Z,14.41
2022-10-17T00:27:42.060Z,14.44
2022-10-17T00:28:42.080Z,14.36
2022-10-17T00:29:42.040Z,14.20
2022-10-17T00:30:42.027Z,14.19
2022-10-17T00:31:42.085Z,14.23
2022-10-17T00:32:42.006Z,14.23
2022-10-17T00:33:41.999Z,14.20
2022-10-17T00:34:41.985Z,14.16
2022-10-17T00:35:41.977Z,14.17
2022-10-17T00:36:41.981Z,14.09
2022-10-17T00:37:41.956Z,14.11
2022-10-17T00:38:41.948Z,14.16
2022-10-17T00:39:41.936Z,14.06
2022-10-17T00:40:41.924Z,14.06
2022-10-17T00:41:41.915Z,14.08
2022-10-17T00:42:41.902Z,14.02
2022-10-17T00:43:41.894Z,13.98
2022-10-17T00:44:41.881Z,14.02
2022-10-17T00:45:41.875Z,13.93
2022-10-17T00:46:41.860Z,13.99
2022-10-17T00:47:41.852Z,14.02
2022-10-17T00:48:41.839Z,14.05
2022-10-17T00:49:41.831Z,13.93
2022-10-17T00:50:41.818Z,14.02
2022-10-17T00:51:41.810Z,14.04
2022-10-17T00:52:41.817Z,13.91
2022-10-17T00:53:41.789Z,13.98
2022-10-17T00:54:41.777Z,13.93
2022-10-17T00:55:41.769Z,13.91
2022-10-17T00:56:41.755Z,13.87
2022-10-17T00:57:41.747Z,13.84
2022-10-17T00:58:41.735Z,13.87
2022-10-17T00:59:41.726Z,13.80
2022-10-17T01:00:41.715Z,13.86
2022-10-17T01:01:41.780Z,13.90
2022-10-17T01:02:41.693Z,13.80
2022-10-17T01:03:41.689Z,13.83
2022-10-17T01:04:41.671Z,13.80
2022-10-17T01:05:41.663Z,13.75
2022-10-17T01:06:41.650Z,13.76
2022-10-17T01:07:41.742Z,13.76
2022-10-17T01:08:41.647Z,13.79
2022-10-17T01:09:41.619Z,13.79
2022-10-17T01:10:41.812Z,13.84
2022-10-17T01:11:41.600Z,13.88
2022-10-17T01:12:41.587Z,13.83
2022-10-17T01:13:41.579Z,13.83
2022-10-17T01:14:41.567Z,13.87
2022-10-17T01:15:41.558Z,13.80
2022-10-17T01:16:41.544Z,13.79
2022-10-17T01:17:41.537Z,13.73
2022-10-17T01:18:41.527Z,13.71
2022-10-17T01:19:41.515Z,13.72
2022-10-17T01:20:41.505Z,13.68
2022-10-17T01:21:41.494Z,13.63
2022-10-17T01:22:41.484Z,13.66
2022-10-17T01:23:41.472Z,13.79
2022-10-17T01:24:41.477Z,13.63
2022-10-17T01:25:41.465Z,13.66
2022-10-17T01:26:41.438Z,13.68
2022-10-17T01:27:41.430Z,13.69
2022-10-17T01:29:41.423Z,13.66
2022-10-17T01:30:41.395Z,13.61
2022-10-17T01:31:41.388Z,13.66
2022-10-17T01:32:41.373Z,13.62
2022-10-17T01:33:41.364Z,13.66
2022-10-17T01:34:41.356Z,13.65
2022-10-17T01:35:41.344Z,13.57
2022-10-17T01:36:41.330Z,13.63
2022-10-17T01:37:41.389Z,13.63
2022-10-17T01:38:41.310Z,13.62
2022-10-17T01:39:43.926Z,13.53
2022-10-17T01:40:41.304Z,13.63
2022-10-17T01:41:41.328Z,13.53
2022-10-17T01:42:41.266Z,13.51
2022-10-17T01:43:41.258Z,13.50
2022-10-17T01:44:41.244Z,13.47
2022-10-17T01:45:41.246Z,13.54
2022-10-17T01:46:41.273Z,13.48
2022-10-17T01:47:41.215Z,13.59
2022-10-17T01:48:41.202Z,13.59
2022-10-17T01:49:41.193Z,13.61
2022-10-17T01:50:41.180Z,13.50
2022-10-17T01:51:41.172Z,13.51
2022-10-17T01:52:41.157Z,13.51
2022-10-17T01:53:41.149Z,13.59
2022-10-17T01:54:41.135Z,13.54
2022-10-17T01:55:41.128Z,13.61
2022-10-17T01:56:41.134Z,13.55
2022-10-17T01:57:41.111Z,13.50
2022-10-17T01:58:41.093Z,13.55
2022-10-17T01:59:41.084Z,13.61
2022-10-17T02:00:41.071Z,13.57
2022-10-17T02:01:41.144Z,13.51
2022-10-17T02:02:41.050Z,13.47
2022-10-17T02:03:41.041Z,13.47
2022-10-17T02:04:41.128Z,13.35
2022-10-17T02:05:41.018Z,13.43
2022-10-17T02:06:41.005Z,13.51
2022-10-17T02:07:40.998Z,13.53
2022-10-17T02:08:40.984Z,13.69
2022-10-17T02:09:40.978Z,13.71
2022-10-17T02:10:40.962Z,13.68
2022-10-17T02:11:40.961Z,13.62
2022-10-17T02:12:40.958Z,13.71
2022-10-17T02:13:40.933Z,13.71
2022-10-17T02:14:40.919Z,13.66
2022-10-17T02:15:40.911Z,13.71
2022-10-17T02:16:40.899Z,13.66
2022-10-17T02:17:40.888Z,13.69
2022-10-17T02:18:40.876Z,13.69
2022-10-17T02:19:40.868Z,13.66
2022-10-17T02:20:40.853Z,13.61
2022-10-17T02:21:40.845Z,13.72
2022-10-17T02:22:40.831Z,13.69
2022-10-17T02:23:40.827Z,13.65
2022-10-17T02:24:40.809Z,13.61
2022-10-17T02:25:40.801Z,13.62
2022-10-17T02:26:40.788Z,13.54
2022-10-17T02:27:40.779Z,13.62
2022-10-17T02:28:40.826Z,13.48
2022-10-17T02:29:40.756Z,13.53
2022-10-17T02:30:40.746Z,13.51
2022-10-17T02:31:40.735Z,13.50
2022-10-17T02:32:40.724Z,13.51
2022-10-17T02:33:40.711Z,13.53
2022-10-17T02:34:40.707Z,13.51
2022-10-17T02:35:40.690Z,13.50
2022-10-17T02:36:40.680Z,13.54
2022-10-17T02:37:40.768Z,13.55
2022-10-17T02:38:40.659Z,13.48
2022-10-17T02:39:40.645Z,13.43
2022-10-17T02:40:40.637Z,13.54
2022-10-17T02:41:40.623Z,13.55
2022-10-17T02:42:40.615Z,13.39
2022-10-17T02:43:40.602Z,13.39
2022-10-17T02:45:40.600Z,13.50
2022-10-17T02:46:40.568Z,13.51
2022-10-17T02:47:40.559Z,13.51
2022-10-17T02:48:40.558Z,13.54
2022-10-17T02:49:40.537Z,13.43
2022-10-17T02:50:40.523Z,13.39
2022-10-17T02:51:40.515Z,13.43
2022-10-17T02:52:40.501Z,13.36
2022-10-17T02:53:40.492Z,13.39
2022-10-17T02:54:40.480Z,13.31
2022-10-17T02:55:40.471Z,13.35
2022-10-17T02:56:40.456Z,13.31
2022-10-17T02:57:40.448Z,13.35
2022-10-17T02:58:40.437Z,13.24
2022-10-17T02:59:40.428Z,13.29
2022-10-17T03:00:40.411Z,13.24
2022-10-17T03:01:40.509Z,13.31
2022-10-17T03:02:40.391Z,13.29
2022-10-17T03:03:40.383Z,13.36
2022-10-17T03:04:40.369Z,13.35
2022-10-17T03:05:40.361Z,13.35
2022-10-17T03:06:40.360Z,13.35
2022-10-17T03:07:40.340Z,13.25
2022-10-17T03:08:40.327Z,13.39
2022-10-17T03:09:40.316Z,13.31
2022-10-17T03:10:40.303Z,13.36
2022-10-17T03:11:40.294Z,13.44
2022-10-17T03:12:40.280Z,13.41
2022-10-17T03:13:40.271Z,13.39
2022-10-17T03:14:40.272Z,13.46
2022-10-17T03:15:40.252Z,13.46
2022-10-17T03:16:40.240Z,13.41
2022-10-17T03:17:40.321Z,13.39
2022-10-17T03:18:40.213Z,13.46
2022-10-17T03:19:40.206Z,13.38
2022-10-17T03:20:40.192Z,13.51
2022-10-17T03:21:40.182Z,13.44
2022-10-17T03:22:40.171Z,13.35
2022-10-17T03:23:40.162Z,13.38
2022-10-17T03:24:40.147Z,13.39
2022-10-17T03:25:40.139Z,13.35
2022-10-17T03:26:40.208Z,13.43
2022-10-17T03:27:40.117Z,13.41
2022-10-17T03:28:40.195Z,13.39
2022-10-17T03:29:40.096Z,13.36
2022-10-17T03:30:40.089Z,13.39
2022-10-17T03:31:40.075Z,13.29
2022-10-17T03:32:40.061Z,13.35
2022-10-17T03:33:40.097Z,13.36
2022-10-17T03:34:40.039Z,13.38
2022-10-17T03:35:40.150Z,13.38
2022-10-17T03:36:40.016Z,13.28
2022-10-17T03:37:40.013Z,13.32
2022-10-17T03:38:39.994Z,13.36
2022-10-17T03:39:39.985Z,13.38
2022-10-17T03:40:39.980Z,13.41
2022-10-17T03:41:39.963Z,13.44
2022-10-17T03:42:39.951Z,13.39
2022-10-17T03:43:39.945Z,13.35
2022-10-17T03:44:39.928Z,13.31
2022-10-17T03:45:39.919Z,13.39
2022-10-17T03:46:39.907Z,13.41
2022-10-17T03:47:39.898Z,13.41
2022-10-17T03:48:39.886Z,13.32
2022-10-17T03:49:39.898Z,13.32
2022-10-17T03:50:39.864Z,13.39
2022-10-17T03:51:39.861Z,13.41
2022-10-17T03:52:39.842Z,13.48
2022-10-17T03:53:39.839Z,13.50
2022-10-17T03:54:39.819Z,13.44
2022-10-17T03:55:39.811Z,13.39
2022-10-17T03:56:39.813Z,13.53
2022-10-17T03:57:42.165Z,13.48
2022-10-17T03:58:39.787Z,13.43
2022-10-17T03:59:39.766Z,13.54
2022-10-17T04:00:39.753Z,13.57
2022-10-17T04:01:39.785Z,13.54
2022-10-17T04:02:39.734Z,13.50
2022-10-17T04:03:39.724Z,13.35
2022-10-17T04:04:39.708Z,13.41
2022-10-17T04:05:39.719Z,13.36
2022-10-17T04:06:39.688Z,13.39
2022-10-17T04:07:39.678Z,13.39
2022-10-17T04:08:39.666Z,13.48
2022-10-17T04:09:39.656Z,13.54
2022-10-17T04:10:39.643Z,13.57
2022-10-17T04:11:39.635Z,13.65
2022-10-17T04:12:39.622Z,13.51
2022-10-17T04:13:39.611Z,13.54
2022-10-17T04:14:39.598Z,13.47
2022-10-17T04:15:39.590Z,13.46
2022-10-17T04:16:39.576Z,13.54
2022-10-17T04:17:39.567Z,13.53
2022-10-17T04:18:39.566Z,13.36
2022-10-17T04:19:39.546Z,13.41
2022-10-17T04:20:39.532Z,13.39
2022-10-17T04:21:39.546Z,13.39
2022-10-17T04:22:39.510Z,13.41
2022-10-17T04:23:39.503Z,13.36
2022-10-17T04:24:39.488Z,13.39
2022-10-17T04:25:39.480Z,13.32
2022-10-17T04:26:39.468Z,13.32
2022-10-17T04:27:39.459Z,13.39
2022-10-17T04:29:39.436Z,13.32
2022-10-17T04:30:41.204Z,13.27
2022-10-17T04:31:39.413Z,13.36
2022-10-17T04:32:39.404Z,13.29
2022-10-17T04:33:39.390Z,13.39
2022-10-17T04:34:39.378Z,13.41
2022-10-17T04:35:39.370Z,13.38
2022-10-17T04:36:39.355Z,13.41
2022-10-17T04:37:39.366Z,13.41
2022-10-17T04:38:39.333Z,13.38
2022-10-17T04:39:39.324Z,13.38
2022-10-17T04:40:39.311Z,13.38
2022-10-17T04:41:39.318Z,13.38
2022-10-17T04:42:39.290Z,13.35
2022-10-17T04:43:39.282Z,13.44
2022-10-17T04:44:39.267Z,13.36
2022-10-17T04:45:39.260Z,13.48
2022-10-17T04:46:39.246Z,13.48
2022-10-17T04:47:39.237Z,13.50
2022-10-17T04:48:39.223Z,13.54
2022-10-17T04:49:39.214Z,13.55
2022-10-17T04:50:39.202Z,13.54
2022-10-17T04:51:39.199Z,13.65
2022-10-17T04:52:39.181Z,13.63
2022-10-17T04:53:39.187Z,13.55
2022-10-17T04:54:39.160Z,13.54
2022-10-17T04:55:39.149Z,13.53
2022-10-17T04:56:39.137Z,13.48
2022-10-17T04:57:39.126Z,13.50
2022-10-17T04:58:39.114Z,13.41
2022-10-17T04:59:39.110Z,13.54
2022-10-17T05:00:39.164Z,13.39
2022-10-17T05:01:39.083Z,13.51
2022-10-17T05:02:39.070Z,13.50
2022-10-17T05:03:39.059Z,13.39
2022-10-17T05:04:39.047Z,13.38
2022-10-17T05:05:39.037Z,13.36
2022-10-17T05:06:39.026Z,13.38
2022-10-17T05:07:39.017Z,13.43
2022-10-17T05:09:39.013Z,13.36
2022-10-17T05:10:38.988Z,13.39
2022-10-17T05:11:38.971Z,13.38
2022-10-17T05:12:38.960Z,13.32
2022-10-17T05:13:38.948Z,13.39
2022-10-17T05:14:38.941Z,13.36
2022-10-17T05:15:38.927Z,13.39
2022-10-17T05:16:38.918Z,13.38
2022-10-17T05:17:38.904Z,13.36
2022-10-17T05:18:38.895Z,13.35
2022-10-17T05:19:38.885Z,13.41
2022-10-17T05:20:38.873Z,13.35
2022-10-17T05:21:38.867Z,13.39
2022-10-17T05:22:41.288Z,13.36
2022-10-17T05:23:38.839Z,13.32
2022-10-17T05:24:38.830Z,13.43
2022-10-17T05:25:38.838Z,13.31
2022-10-17T05:26:38.806Z,13.31
2022-10-17T05:27:38.795Z,13.32
2022-10-17T05:28:38.859Z,13.38
2022-10-17T05:29:38.784Z,13.48
2022-10-17T05:30:38.765Z,13.51
2022-10-17T05:31:38.751Z,13.43
2022-10-17T05:32:38.740Z,13.53
2022-10-17T05:33:38.735Z,13.59
2022-10-17T05:34:38.722Z,13.61
2022-10-17T05:35:38.708Z,13.76
2022-10-17T05:36:38.705Z,13.80
2022-10-17T05:37:38.684Z,13.81
2022-10-17T05:38:38.674Z,13.75
2022-10-17T05:39:38.663Z,13.68
2022-10-17T05:40:38.654Z,13.75
2022-10-17T05:41:38.659Z,13.71
2022-10-17T05:43:38.619Z,13.71
2022-10-17T05:44:38.610Z,13.65
2022-10-17T05:45:38.597Z,13.69
2022-10-17T05:46:38.588Z,13.66
2022-10-17T05:47:38.625Z,13.73
2022-10-17T05:48:38.566Z,13.81
2022-10-17T05:49:46.261Z,13.73
2022-10-17T05:50:38.546Z,13.81
2022-10-17T05:52:38.523Z,13.87
2022-10-17T05:53:38.512Z,13.96
2022-10-17T05:54:38.504Z,13.93
2022-10-17T05:55:38.489Z,13.88
2022-10-17T05:56:38.480Z,13.79
2022-10-17T05:57:38.483Z,13.80
2022-10-17T05:58:49.794Z,13.80
2022-10-17T05:59:38.445Z,13.79
2022-10-17T06:00:38.465Z,13.79
2022-10-17T06:01:38.452Z,13.76
2022-10-17T06:02:38.415Z,13.76
2022-10-17T06:03:38.402Z,13.81
2022-10-17T06:04:38.392Z,13.76
2022-10-17T06:05:38.380Z,13.80
2022-10-17T06:06:38.371Z,13.80
2022-10-17T06:07:38.359Z,13.76
2022-10-17T06:08:38.348Z,13.76
2022-10-17T06:09:38.398Z,13.81
2022-10-17T06:10:38.328Z,13.73
2022-10-17T06:11:38.315Z,13.66
2022-10-17T06:12:38.323Z,13.80
2022-10-17T06:13:38.312Z,13.75
2022-10-17T06:14:38.284Z,13.73
2022-10-17T06:15:38.372Z,13.73
2022-10-17T06:16:38.263Z,13.69
2022-10-17T06:17:38.251Z,13.76
2022-10-17T06:18:38.312Z,13.66
2022-10-17T06:19:38.230Z,13.62
2022-10-17T06:20:40.547Z,13.68
2022-10-17T06:21:38.208Z,13.66
2022-10-17T06:22:38.201Z,13.71
2022-10-17T06:23:38.189Z,13.65
2022-10-17T06:24:38.177Z,13.68
2022-10-17T06:25:38.167Z,13.71
2022-10-17T06:26:38.154Z,13.73
2022-10-17T06:27:38.143Z,13.73
2022-10-17T06:28:38.224Z,13.76
2022-10-17T06:29:38.137Z,13.76
2022-10-17T06:30:38.112Z,13.81
2022-10-17T06:31:38.098Z,13.79
2022-10-17T06:32:38.189Z,13.80
2022-10-17T06:33:38.078Z,13.86
2022-10-17T06:34:38.069Z,13.86
2022-10-17T06:35:38.060Z,13.86
2022-10-17T06:36:38.047Z,13.87
2022-10-17T06:37:38.308Z,13.88
2022-10-17T06:38:38.028Z,13.86
2022-10-17T06:39:38.014Z,13.91
2022-10-17T06:40:38.004Z,13.90
2022-10-17T06:41:37.992Z,13.83
2022-10-17T06:42:38.084Z,14.01
2022-10-17T06:43:37.971Z,13.90
2022-10-17T06:44:37.967Z,13.94
2022-10-17T06:45:38.069Z,14.02
2022-10-17T06:46:37.940Z,14.08
2022-10-17T06:47:37.930Z,14.11
2022-10-17T06:48:37.919Z,14.11
2022-10-17T06:49:37.906Z,14.11
2022-10-17T06:50:37.901Z,13.96
2022-10-17T06:51:37.887Z,13.94
2022-10-17T06:52:37.873Z,13.84
2022-10-17T06:53:37.868Z,13.69
2022-10-17T06:54:37.854Z,13.73
2022-10-17T06:55:37.844Z,13.69
2022-10-17T06:56:37.838Z,13.63
2022-10-17T06:57:37.822Z,13.69
2022-10-17T06:58:37.810Z,13.75
2022-10-17T06:59:37.801Z,13.75
2022-10-17T07:00:37.911Z,13.81
2022-10-17T07:01:38.922Z,13.84
2022-10-17T07:02:37.782Z,13.83
2022-10-17T07:03:37.759Z,13.90
2022-10-17T07:04:37.746Z,14.01
2022-10-17T07:05:37.736Z,13.98
2022-10-17T07:06:37.723Z,14.05
2022-10-17T07:07:40.137Z,14.16
2022-10-17T07:08:37.702Z,14.19
2022-10-17T07:09:37.693Z,14.17
2022-10-17T07:10:37.684Z,14.19
2022-10-17T07:11:37.672Z,14.20
2022-10-17T07:12:37.660Z,14.35
2022-10-17T07:13:39.304Z,14.41
2022-10-17T07:14:37.637Z,14.38
2022-10-17T07:15:37.636Z,14.44
2022-10-17T07:16:37.616Z,14.53
2022-10-17T07:17:37.626Z,14.56
2022-10-17T07:18:37.597Z,14.57
2022-10-17T07:19:37.589Z,14.52
2022-10-17T07:20:37.573Z,14.61
2022-10-17T07:21:39.202Z,14.64
2022-10-17T07:22:37.554Z,14.69
2022-10-17T07:23:37.548Z,14.87
2022-10-17T07:24:37.549Z,14.90
2022-10-17T07:25:40.053Z,15.04
2022-10-17T07:26:37.511Z,15.16
2022-10-17T07:27:37.504Z,15.19
2022-10-17T07:28:37.588Z,15.33
2022-10-17T07:29:37.484Z,15.37
2022-10-17T07:30:37.472Z,15.49
2022-10-17T07:31:37.463Z,15.49
2022-10-17T07:32:37.456Z,15.49
2022-10-17T07:33:37.496Z,15.56
2022-10-17T07:34:37.433Z,15.71
2022-10-17T07:35:37.422Z,15.84
2022-10-17T07:36:37.411Z,15.91
2022-10-17T07:37:37.407Z,15.92
2022-10-17T07:38:37.392Z,15.86
2022-10-17T07:39:37.385Z,15.86
2022-10-17T07:40:37.372Z,15.92
2022-10-17T07:41:37.364Z,15.89
2022-10-17T07:43:37.348Z,15.98
2022-10-17T07:44:37.332Z,16.03
2022-10-17T07:45:37.325Z,16.13
2022-10-17T07:46:37.314Z,16.14
2022-10-17T07:47:37.306Z,16.13
2022-10-17T07:48:37.295Z,16.16
2022-10-17T07:49:37.305Z,16.16
2022-10-17T07:50:37.275Z,16.29
2022-10-17T07:51:37.353Z,16.22
2022-10-17T07:52:37.255Z,16.29
2022-10-17T07:53:37.255Z,16.26
2022-10-17T07:54:37.239Z,16.37
2022-10-17T07:55:37.232Z,16.36
2022-10-17T07:56:37.224Z,16.40
2022-10-17T07:57:37.212Z,16.51
2022-10-17T07:58:37.201Z,16.51
2022-10-17T07:59:37.198Z,16.54
2022-10-17T08:00:37.400Z,16.67
2022-10-17T08:01:37.181Z,16.70
2022-10-17T08:02:37.166Z,16.65
2022-10-17T08:03:37.157Z,16.75
2022-10-17T08:04:37.149Z,16.88
2022-10-17T08:05:37.158Z,16.91
2022-10-17T08:06:37.134Z,17.02
2022-10-17T08:07:37.125Z,17.05
2022-10-17T08:08:37.110Z,17.07
2022-10-17T08:09:37.102Z,17.21
2022-10-17T08:10:37.092Z,17.20
2022-10-17T08:11:37.089Z,17.28
2022-10-17T08:12:37.074Z,17.33
2022-10-17T08:13:37.067Z,17.32
2022-10-17T08:14:37.057Z,17.35
2022-10-17T08:15:37.049Z,17.47
2022-10-17T08:16:37.037Z,17.39
2022-10-17T08:17:37.031Z,17.45
2022-10-17T08:18:37.025Z,17.40
2022-10-17T08:19:37.013Z,17.49
2022-10-17T08:20:37.001Z,17.49
2022-10-17T08:21:37.013Z,17.51
2022-10-17T08:22:36.984Z,17.51
2022-10-17T08:23:37.079Z,17.54
2022-10-17T08:24:36.968Z,17.58
2022-10-17T08:25:36.960Z,17.58
2022-10-17T08:26:40.653Z,17.65
2022-10-17T08:27:36.943Z,17.62
2022-10-17T08:28:37.051Z,17.58
2022-10-17T08:29:37.030Z,17.62
2022-10-17T08:30:36.936Z,17.63
2022-10-17T08:31:36.983Z,17.63
2022-10-17T08:32:36.945Z,17.74
2022-10-17T08:33:36.900Z,17.73
2022-10-17T08:34:36.881Z,17.73
2022-10-17T08:35:36.876Z,17.79
2022-10-17T08:36:36.899Z,17.91
2022-10-17T08:37:36.879Z,17.91
2022-10-17T08:38:37.610Z,17.98
2022-10-17T08:39:36.842Z,17.96
2022-10-17T08:40:36.832Z,18.04
2022-10-17T08:41:36.826Z,18.01
2022-10-17T08:42:36.816Z,17.99
2022-10-17T08:43:36.824Z,18.05
2022-10-17T08:44:36.799Z,18.14
2022-10-17T08:45:36.792Z,18.11
2022-10-17T08:46:36.866Z,18.16
2022-10-17T08:47:36.777Z,18.25
2022-10-17T08:48:36.767Z,18.23
2022-10-17T08:49:36.759Z,18.34
2022-10-17T08:50:36.754Z,18.36
2022-10-17T08:51:36.743Z,18.42
2022-10-17T08:52:36.733Z,18.51
2022-10-17T08:53:36.748Z,18.44
2022-10-17T08:54:36.719Z,18.44
2022-10-17T08:55:38.858Z,18.56
2022-10-17T08:56:47.945Z,18.59
2022-10-17T08:57:36.695Z,18.72
2022-10-17T08:58:36.686Z,18.65
2022-10-17T08:59:36.680Z,18.69
2022-10-17T09:00:36.670Z,18.75
2022-10-17T09:01:36.665Z,18.82
2022-10-17T09:02:36.746Z,18.76
2022-10-17T09:03:36.649Z,18.86
2022-10-17T09:04:36.641Z,18.93
2022-10-17T09:05:36.633Z,18.91
2022-10-17T09:06:36.624Z,18.94
2022-10-17T09:07:36.619Z,18.93
2022-10-17T09:08:36.607Z,19.01
2022-10-17T09:09:36.622Z,19.02
2022-10-17T09:10:36.593Z,19.06
2022-10-17T09:11:36.641Z,19.06
2022-10-17T09:12:36.578Z,19.12
2022-10-17T09:14:36.563Z,19.06
2022-10-17T09:15:36.558Z,18.99
2022-10-17T09:16:36.549Z,19.01
2022-10-17T09:17:36.544Z,19.05
2022-10-17T09:18:36.533Z,19.02
2022-10-17T09:19:36.528Z,19.07
2022-10-17T09:20:36.519Z,19.06
2022-10-17T09:21:36.512Z,19.09
2022-10-17T09:22:36.509Z,19.06
2022-10-17T09:23:39.092Z,18.99
2022-10-17T09:24:36.489Z,18.93
2022-10-17T09:25:36.502Z,19.02
2022-10-17T09:26:36.481Z,18.99
2022-10-17T09:27:36.484Z,18.97
2022-10-17T09:28:36.512Z,19.06
2022-10-17T09:29:40.272Z,19.12
2022-10-17T09:30:47.500Z,19.05
2022-10-17T09:31:36.439Z,19.09
2022-10-17T09:32:36.429Z,19.09
2022-10-17T09:33:53.353Z,19.23
2022-10-17T09:34:36.415Z,19.30
2022-10-17T09:35:36.410Z,19.35
2022-10-17T09:36:36.398Z,19.38
2022-10-17T09:37:36.395Z,19.53
2022-10-17T09:38:36.386Z,19.49
2022-10-17T09:39:36.381Z,19.55
2022-10-17T09:40:36.375Z,19.43
2022-10-17T09:41:45.820Z,19.53
2022-10-17T09:42:36.358Z,19.61
2022-10-17T09:43:36.352Z,19.53
2022-10-17T09:44:36.342Z,19.50
2022-10-17T09:45:36.338Z,19.55
2022-10-17T09:46:36.329Z,19.65
2022-10-17T09:47:36.323Z,19.64
2022-10-17T09:48:36.314Z,19.76
2022-10-17T09:49:36.311Z,19.79
2022-10-17T09:50:36.302Z,19.80
2022-10-17T09:51:36.296Z,19.82
2022-10-17T09:52:36.302Z,19.85
2022-10-17T09:53:36.280Z,19.85
2022-10-17T09:54:36.274Z,19.90
2022-10-17T09:55:36.275Z,19.89
2022-10-17T09:56:36.260Z,19.94
2022-10-17T09:57:36.273Z,19.89
2022-10-17T09:58:36.256Z,19.95
2022-10-17T09:59:36.244Z,20.01
2022-10-17T10:00:36.270Z,19.95
2022-10-17T10:01:36.228Z,19.95
2022-10-17T10:02:36.217Z,19.89
2022-10-17T10:03:36.214Z,20.01
2022-10-17T10:04:47.052Z,19.97
2022-10-17T10:05:36.219Z,20.05
2022-10-17T10:06:36.191Z,20.05
2022-10-17T10:07:36.191Z,20.10
2022-10-17T10:08:36.178Z,20.15
2022-10-17T10:09:38.139Z,20.19
2022-10-17T10:10:36.164Z,20.19
2022-10-17T10:11:36.158Z,20.15
2022-10-17T10:12:36.150Z,20.23
2022-10-17T10:13:36.165Z,20.23
2022-10-17T10:14:36.136Z,20.34
2022-10-17T10:15:36.132Z,20.35
2022-10-17T10:16:36.123Z,20.37
2022-10-17T10:17:36.118Z,20.46
2022-10-17T10:18:36.137Z,20.48
2022-10-17T10:19:36.108Z,20.46
2022-10-17T10:20:36.098Z,20.61
2022-10-17T10:21:37.340Z,20.63
2022-10-17T10:22:36.134Z,20.69
2022-10-17T10:23:36.081Z,20.63
2022-10-17T10:24:36.071Z,20.72
2022-10-17T10:25:36.066Z,20.71
2022-10-17T10:26:36.059Z,20.76
2022-10-17T10:27:36.060Z,20.73
2022-10-17T10:28:36.151Z,20.75
2022-10-17T10:29:36.060Z,20.76
2022-10-17T10:30:39.079Z,20.72
2022-10-17T10:31:36.031Z,20.76
2022-10-17T10:32:36.021Z,20.79
2022-10-17T10:33:39.302Z,20.76
2022-10-17T10:34:36.007Z,20.75
2022-10-17T10:35:36.207Z,20.76
2022-10-17T10:37:35.992Z,20.85
2022-10-17T10:38:35.984Z,20.97
2022-10-17T10:39:35.980Z,20.97
2022-10-17T10:40:35.970Z,20.93
2022-10-17T10:41:35.967Z,21.01
2022-10-17T10:42:36.049Z,21.01
2022-10-17T10:43:35.970Z,21.03
2022-10-17T10:44:35.947Z,21.01
2022-10-17T10:45:47.461Z,20.96
2022-10-17T10:46:35.938Z,20.97
2022-10-17T10:47:35.933Z,20.90
2022-10-17T10:48:35.923Z,21.00
2022-10-17T10:49:35.923Z,21.06
2022-10-17T10:50:35.912Z,21.24
2022-10-17T10:51:35.908Z,21.34
2022-10-17T10:52:35.900Z,21.33
2022-10-17T10:53:35.898Z,21.45
2022-10-17T10:54:35.938Z,21.49
2022-10-17T10:55:35.885Z,21.36
2022-10-17T10:56:35.985Z,21.40
2022-10-17T10:57:35.873Z,21.43
2022-10-17T10:58:38.941Z,21.51
2022-10-17T10:59:35.862Z,21.52
2022-10-17T11:00:35.927Z,21.52
2022-10-17T11:01:35.873Z,21.56
2022-10-17T11:02:35.843Z,21.67
2022-10-17T11:03:35.922Z,21.71
2022-10-17T11:04:35.830Z,21.74
2022-10-17T11:05:35.827Z,21.79
2022-10-17T11:06:35.823Z,21.71
2022-10-17T11:07:35.814Z,21.75
2022-10-17T11:08:35.811Z,21.77
2022-10-17T11:09:35.806Z,21.75
2022-10-17T11:10:35.800Z,21.79
2022-10-17T11:11:35.794Z,21.89
2022-10-17T11:12:35.853Z,21.90
2022-10-17T11:13:35.783Z,21.90
2022-10-17T11:14:35.781Z,21.93
2022-10-17T11:15:35.772Z,21.98
2022-10-17T11:16:35.768Z,21.91
2022-10-17T11:17:35.787Z,22.05
2022-10-17T11:18:35.758Z,22.09
2022-10-17T11:19:35.751Z,22.15
2022-10-17T11:20:35.761Z,22.20
2022-10-17T11:21:35.786Z,22.29
2022-10-17T11:22:36.335Z,22.29
2022-10-17T11:23:35.731Z,22.35
2022-10-17T11:24:35.727Z,22.41
2022-10-17T11:25:35.720Z,22.44
2022-10-17T11:26:35.717Z,22.51
2022-10-17T11:27:35.711Z,22.52
2022-10-17T11:28:35.767Z,22.52
2022-10-17T11:29:35.701Z,22.48
2022-10-17T11:30:35.815Z,22.59
2022-10-17T11:31:35.895Z,22.59
2022-10-17T11:32:35.688Z,22.56
2022-10-17T11:33:35.699Z,22.63
2022-10-17T11:34:35.678Z,22.52
2022-10-17T11:35:35.671Z,22.60
2022-10-17T11:36:35.668Z,22.56
2022-10-17T11:37:35.661Z,22.54
2022-10-17T11:38:35.660Z,22.42
2022-10-17T11:39:35.698Z,22.31
2022-10-17T11:40:35.649Z,22.39
2022-10-17T11:41:35.649Z,22.44
2022-10-17T11:42:35.639Z,22.41
2022-10-17T11:43:35.632Z,22.48
2022-10-17T11:44:35.629Z,22.54
2022-10-17T11:45:35.625Z,22.49
2022-10-17T11:46:35.621Z,22.49
2022-10-17T11:47:35.615Z,22.64
2022-10-17T11:48:35.611Z,22.67
2022-10-17T11:49:39.853Z,22.69
2022-10-17T11:53:05.180Z,22.72
2022-10-17T11:53:35.585Z,22.72
2022-10-17T11:54:35.584Z,22.79
2022-10-17T11:55:35.577Z,22.81
2022-10-17T11:56:37.995Z,22.84
2022-10-17T11:57:35.574Z,22.89
2022-10-17T11:58:35.906Z,22.94
2022-10-17T11:59:35.559Z,22.82
2022-10-17T12:00:37.970Z,22.91
2022-10-17T12:01:35.550Z,22.89
2022-10-17T12:02:35.548Z,22.78
2022-10-17T12:03:35.547Z,22.84
2022-10-17T12:04:35.608Z,22.86
2022-10-17T12:05:35.556Z,22.85
2022-10-17T12:06:35.530Z,22.97
2022-10-17T12:07:35.554Z,23.00
2022-10-17T12:08:35.519Z,23.00
2022-10-17T12:09:35.517Z,23.04
2022-10-17T12:10:35.515Z,23.03
2022-10-17T12:11:35.510Z,23.00
2022-10-17T12:12:35.504Z,23.07
2022-10-17T12:13:35.497Z,23.12
2022-10-17T12:14:35.496Z,23.07
2022-10-17T12:15:35.489Z,23.14
2022-10-17T12:16:35.536Z,23.16
2022-10-17T12:17:35.484Z,23.25
2022-10-17T12:18:35.477Z,23.15
2022-10-17T12:19:35.470Z,23.19
2022-10-17T12:20:35.468Z,23.06
2022-10-17T12:21:35.483Z,23.12
2022-10-17T12:22:35.461Z,23.16
2022-10-17T12:23:35.455Z,23.15
2022-10-17T12:24:35.451Z,23.19
2022-10-17T12:25:35.516Z,23.21
2022-10-17T12:26:35.445Z,23.18
2022-10-17T12:27:36.059Z,23.16
2022-10-17T12:28:35.533Z,23.21
2022-10-17T12:29:35.430Z,23.25
2022-10-17T12:30:35.427Z,23.26
2022-10-17T12:31:35.422Z,23.21
2022-10-17T12:33:00.579Z,23.26
2022-10-17T12:33:35.412Z,23.18
2022-10-17T12:34:35.450Z,23.34
2022-10-17T12:35:35.412Z,23.19
2022-10-17T12:36:35.406Z,23.19
2022-10-17T12:37:35.419Z,23.21
2022-10-17T12:39:35.392Z,23.15
2022-10-17T12:40:35.383Z,23.23
2022-10-17T12:41:35.382Z,23.29
2022-10-17T12:42:35.377Z,23.35
2022-10-17T12:43:35.415Z,23.34
2022-10-17T12:44:35.370Z,23.31
2022-10-17T12:45:35.366Z,23.34
2022-10-17T12:46:35.361Z,23.37
2022-10-17T12:47:35.358Z,23.37
2022-10-17T12:48:35.352Z,23.37
2022-10-17T12:49:35.358Z,23.35
2022-10-17T12:50:38.081Z,23.34
2022-10-17T12:51:37.389Z,23.37
2022-10-17T12:52:35.335Z,23.37
2022-10-17T12:53:35.353Z,23.39
2022-10-17T12:54:46.992Z,23.41
2022-10-17T12:55:35.326Z,23.39
2022-10-17T12:56:35.320Z,23.45
2022-10-17T12:57:35.329Z,23.41
2022-10-17T12:58:35.360Z,23.44
2022-10-17T12:59:35.388Z,23.41
2022-10-17T13:00:35.404Z,23.35
2022-10-17T13:01:35.382Z,23.39
2022-10-17T13:02:35.320Z,23.41
2022-10-17T13:03:35.357Z,23.42
2022-10-17T13:04:35.306Z,23.39